sensor_id;sensor_type;location;lat;lon;timestamp;temperature;humidity
17795;DHT22;9021;50.882;4.326;2023-04-29T00:00:41;14.10;99.90
17795;DHT22;9021;50.882;4.326;2023-04-29T00:03:07;13.30;99.90
17795;DHT22;9021;50.882;4.326;2023-04-29T00:05:32;14.10;99.90
17795;DHT22;9021;50.882;4.326;2023-04-29T00:07:58;13.70;99.90
17795;DHT22;9021;50.882;4.326;2023-04-29T00:10:24;13.20;99.90
17795;DHT22;9021;50.882;4.326;2023-04-29T00:12:50;13.60;99.90
17795;DHT22;9021;50.882;4.326;2023-04-29T00:15:16;13.60;99.90
17795;DHT22;9021;50.882;4.326;2023-04-29T00:17:42;13.40;99.90
17795;DHT22;9021;50.882;4.326;2023-04-29T00:20:08;13.50;99.90
17795;DHT22;9021;50.882;4.326;2023-04-29T00:22:34;13.60;99.90
17795;DHT22;9021;50.882;4.326;2023-04-29T00:25:00;13.40;99.90
17795;DHT22;9021;50.882;4.326;2023-04-29T00:27:26;13.30;99.90
17795;DHT22;9021;50.882;4.326;2023-04-29T00:29:51;13.00;99.90
17795;DHT22;9021;50.882;4.326;2023-04-29T00:32:17;13.30;99.90
17795;DHT22;9021;50.882;4.326;2023-04-29T00:34:43;13.50;99.90
17795;DHT22;9021;50.882;4.326;2023-04-29T00:37:08;13.70;99.90
17795;DHT22;9021;50.882;4.326;2023-04-29T00:39:34;13.10;99.90
17795;DHT22;9021;50.882;4.326;2023-04-29T00:42:00;13.40;99.90
17795;DHT22;9021;50.882;4.326;2023-04-29T00:44:28;12.80;99.90
17795;DHT22;9021;50.882;4.326;2023-04-29T00:46:53;13.10;99.90
17795;DHT22;9021;50.882;4.326;2023-04-29T00:49:19;13.10;99.90
17795;DHT22;9021;50.882;4.326;2023-04-29T00:54:11;13.20;99.90
17795;DHT22;9021;50.882;4.326;2023-04-29T00:56:38;13.20;99.90
17795;DHT22;9021;50.882;4.326;2023-04-29T00:59:08;12.90;99.90
17795;DHT22;9021;50.882;4.326;2023-04-29T01:01:35;13.20;99.90
17795;DHT22;9021;50.882;4.326;2023-04-29T01:04:01;13.20;99.90
17795;DHT22;9021;50.882;4.326;2023-04-29T01:09:52;13.10;99.90
17795;DHT22;9021;50.882;4.326;2023-04-29T01:17:49;13.40;99.90
17795;DHT22;9021;50.882;4.326;2023-04-29T01:20:16;13.20;99.90
17795;DHT22;9021;50.882;4.326;2023-04-29T01:22:42;13.20;99.90
17795;DHT22;9021;50.882;4.326;2023-04-29T01:25:08;13.20;99.90
17795;DHT22;9021;50.882;4.326;2023-04-29T01:40:47;13.50;99.90
17795;DHT22;9021;50.882;4.326;2023-04-29T01:43:22;12.70;99.90
17795;DHT22;9021;50.882;4.326;2023-04-29T01:45:52;12.80;99.90
17795;DHT22;9021;50.882;4.326;2023-04-29T01:48:20;13.10;99.90
17795;DHT22;9021;50.882;4.326;2023-04-29T01:50:46;12.70;99.90
17795;DHT22;9021;50.882;4.326;2023-04-29T01:53:12;13.10;99.90
17795;DHT22;9021;50.882;4.326;2023-04-29T01:55:37;12.70;99.90
17795;DHT22;9021;50.882;4.326;2023-04-29T01:58:03;13.00;99.90
17795;DHT22;9021;50.882;4.326;2023-04-29T02:00:29;12.90;99.90
17795;DHT22;9021;50.882;4.326;2023-04-29T02:02:54;12.90;99.90
17795;DHT22;9021;50.882;4.326;2023-04-29T02:05:20;13.20;99.90
17795;DHT22;9021;50.882;4.326;2023-04-29T02:07:46;13.00;99.90
17795;DHT22;9021;50.882;4.326;2023-04-29T02:10:12;12.70;99.90
17795;DHT22;9021;50.882;4.326;2023-04-29T02:12:38;12.60;99.90
17795;DHT22;9021;50.882;4.326;2023-04-29T02:15:04;13.10;99.90
17795;DHT22;9021;50.882;4.326;2023-04-29T02:17:29;12.80;99.90
17795;DHT22;9021;50.882;4.326;2023-04-29T02:19:55;12.90;99.90
17795;DHT22;9021;50.882;4.326;2023-04-29T02:22:21;12.80;99.90
17795;DHT22;9021;50.882;4.326;2023-04-29T02:24:46;12.80;99.90
17795;DHT22;9021;50.882;4.326;2023-04-29T02:27:12;12.70;99.90
17795;DHT22;9021;50.882;4.326;2023-04-29T02:29:38;13.00;99.90
17795;DHT22;9021;50.882;4.326;2023-04-29T02:32:04;12.80;99.90
17795;DHT22;9021;50.882;4.326;2023-04-29T02:34:30;12.80;99.90
17795;DHT22;9021;50.882;4.326;2023-04-29T02:36:56;12.80;99.90
17795;DHT22;9021;50.882;4.326;2023-04-29T02:39:22;12.90;99.90
17795;DHT22;9021;50.882;4.326;2023-04-29T02:41:48;13.00;99.90
17795;DHT22;9021;50.882;4.326;2023-04-29T02:44:13;13.00;99.90
17795;DHT22;9021;50.882;4.326;2023-04-29T02:46:39;12.80;99.90
17795;DHT22;9021;50.882;4.326;2023-04-29T02:49:10;12.90;99.90
17795;DHT22;9021;50.882;4.326;2023-04-29T02:54:02;12.30;99.90
17795;DHT22;9021;50.882;4.326;2023-04-29T02:56:27;12.40;99.90
17795;DHT22;9021;50.882;4.326;2023-04-29T02:58:54;12.90;99.90
17795;DHT22;9021;50.882;4.326;2023-04-29T03:01:19;12.60;99.90
17795;DHT22;9021;50.882;4.326;2023-04-29T03:03:46;13.10;99.90
17795;DHT22;9021;50.882;4.326;2023-04-29T03:06:11;12.70;99.90
17795;DHT22;9021;50.882;4.326;2023-04-29T03:08:37;12.40;99.90
17795;DHT22;9021;50.882;4.326;2023-04-29T03:11:03;13.20;99.90
17795;DHT22;9021;50.882;4.326;2023-04-29T03:13:28;12.90;99.90
17795;DHT22;9021;50.882;4.326;2023-04-29T03:15:54;12.60;99.90
17795;DHT22;9021;50.882;4.326;2023-04-29T03:18:23;13.10;99.90
17795;DHT22;9021;50.882;4.326;2023-04-29T03:20:48;13.10;99.90
17795;DHT22;9021;50.882;4.326;2023-04-29T03:23:14;12.40;99.90
17795;DHT22;9021;50.882;4.326;2023-04-29T03:25:40;13.00;99.90
17795;DHT22;9021;50.882;4.326;2023-04-29T03:28:06;11.70;99.90
17795;DHT22;9021;50.882;4.326;2023-04-29T03:30:32;12.70;99.90
17795;DHT22;9021;50.882;4.326;2023-04-29T03:32:57;16.60;99.90
17795;DHT22;9021;50.882;4.326;2023-04-29T03:35:23;12.90;99.90
17795;DHT22;9021;50.882;4.326;2023-04-29T03:37:49;13.10;99.90
17795;DHT22;9021;50.882;4.326;2023-04-29T03:40:14;13.00;99.90
17795;DHT22;9021;50.882;4.326;2023-04-29T03:42:40;12.70;99.90
17795;DHT22;9021;50.882;4.326;2023-04-29T03:45:06;12.40;99.90
17795;DHT22;9021;50.882;4.326;2023-04-29T03:47:32;12.70;99.90
17795;DHT22;9021;50.882;4.326;2023-04-29T03:49:58;12.80;99.90
17795;DHT22;9021;50.882;4.326;2023-04-29T03:54:50;12.70;99.90
17795;DHT22;9021;50.882;4.326;2023-04-29T03:59:41;12.60;99.90
17795;DHT22;9021;50.882;4.326;2023-04-29T04:02:07;12.70;99.90
17795;DHT22;9021;50.882;4.326;2023-04-29T04:04:33;12.90;99.90
17795;DHT22;9021;50.882;4.326;2023-04-29T04:06:58;12.60;99.90
17795;DHT22;9021;50.882;4.326;2023-04-29T04:09:25;12.40;99.90
17795;DHT22;9021;50.882;4.326;2023-04-29T04:11:50;12.70;99.90
17795;DHT22;9021;50.882;4.326;2023-04-29T04:14:17;12.80;99.90
17795;DHT22;9021;50.882;4.326;2023-04-29T04:16:43;12.80;99.90
17795;DHT22;9021;50.882;4.326;2023-04-29T04:19:09;13.00;99.90
17795;DHT22;9021;50.882;4.326;2023-04-29T04:21:34;12.50;99.90
17795;DHT22;9021;50.882;4.326;2023-04-29T04:24:00;12.80;99.90
17795;DHT22;9021;50.882;4.326;2023-04-29T04:26:26;12.90;99.90
17795;DHT22;9021;50.882;4.326;2023-04-29T04:28:51;13.00;99.90
17795;DHT22;9021;50.882;4.326;2023-04-29T04:31:17;13.00;99.90
17795;DHT22;9021;50.882;4.326;2023-04-29T04:33:43;13.00;99.90
17795;DHT22;9021;50.882;4.326;2023-04-29T04:36:08;12.10;99.90
17795;DHT22;9021;50.882;4.326;2023-04-29T04:38:34;12.50;99.90
17795;DHT22;9021;50.882;4.326;2023-04-29T04:41:00;12.50;99.90
17795;DHT22;9021;50.882;4.326;2023-04-29T04:43:26;12.30;99.90
17795;DHT22;9021;50.882;4.326;2023-04-29T04:45:52;12.40;99.90
17795;DHT22;9021;50.882;4.326;2023-04-29T04:48:18;12.40;99.90
17795;DHT22;9021;50.882;4.326;2023-04-29T04:50:43;12.60;99.90
17795;DHT22;9021;50.882;4.326;2023-04-29T04:53:09;12.50;99.90
17795;DHT22;9021;50.882;4.326;2023-04-29T04:55:35;12.60;99.90
17795;DHT22;9021;50.882;4.326;2023-04-29T04:58:01;12.60;99.90
17795;DHT22;9021;50.882;4.326;2023-04-29T05:00:26;12.60;99.90
17795;DHT22;9021;50.882;4.326;2023-04-29T05:02:52;12.50;99.90
17795;DHT22;9021;50.882;4.326;2023-04-29T05:05:18;12.80;99.90
17795;DHT22;9021;50.882;4.326;2023-04-29T05:07:43;12.20;99.90
17795;DHT22;9021;50.882;4.326;2023-04-29T05:10:09;12.40;99.90
17795;DHT22;9021;50.882;4.326;2023-04-29T05:12:35;12.80;99.90
17795;DHT22;9021;50.882;4.326;2023-04-29T05:15:02;12.60;99.90
17795;DHT22;9021;50.882;4.326;2023-04-29T05:17:30;12.50;99.90
17795;DHT22;9021;50.882;4.326;2023-04-29T05:19:56;12.40;99.90
17795;DHT22;9021;50.882;4.326;2023-04-29T05:22:22;12.40;99.90
17795;DHT22;9021;50.882;4.326;2023-04-29T05:24:48;12.50;99.90
17795;DHT22;9021;50.882;4.326;2023-04-29T05:27:14;12.50;99.90
17795;DHT22;9021;50.882;4.326;2023-04-29T05:29:40;12.40;99.90
17795;DHT22;9021;50.882;4.326;2023-04-29T05:32:05;12.50;99.90
17795;DHT22;9021;50.882;4.326;2023-04-29T05:34:31;12.60;99.90
17795;DHT22;9021;50.882;4.326;2023-04-29T05:36:57;12.60;99.90
17795;DHT22;9021;50.882;4.326;2023-04-29T05:39:22;12.70;99.90
17795;DHT22;9021;50.882;4.326;2023-04-29T05:41:48;12.60;99.90
17795;DHT22;9021;50.882;4.326;2023-04-29T05:44:14;12.60;99.90
17795;DHT22;9021;50.882;4.326;2023-04-29T05:46:40;12.70;99.90
17795;DHT22;9021;50.882;4.326;2023-04-29T05:49:05;12.30;99.90
17795;DHT22;9021;50.882;4.326;2023-04-29T05:51:31;12.50;99.90
17795;DHT22;9021;50.882;4.326;2023-04-29T05:53:56;12.60;99.90
17795;DHT22;9021;50.882;4.326;2023-04-29T05:56:24;12.40;99.90
17795;DHT22;9021;50.882;4.326;2023-04-29T05:58:50;12.90;99.90
17795;DHT22;9021;50.882;4.326;2023-04-29T06:01:16;12.50;99.90
17795;DHT22;9021;50.882;4.326;2023-04-29T06:03:42;13.00;99.90
17795;DHT22;9021;50.882;4.326;2023-04-29T06:06:09;11.50;99.90
17795;DHT22;9021;50.882;4.326;2023-04-29T06:08:35;12.50;99.90
17795;DHT22;9021;50.882;4.326;2023-04-29T06:11:00;12.60;99.90
17795;DHT22;9021;50.882;4.326;2023-04-29T06:13:27;12.60;99.90
17795;DHT22;9021;50.882;4.326;2023-04-29T06:15:54;13.00;99.90
17795;DHT22;9021;50.882;4.326;2023-04-29T06:18:20;12.90;99.90
17795;DHT22;9021;50.882;4.326;2023-04-29T06:20:45;12.90;99.90
17795;DHT22;9021;50.882;4.326;2023-04-29T06:25:37;12.70;99.90
17795;DHT22;9021;50.882;4.326;2023-04-29T06:28:03;12.20;99.90
17795;DHT22;9021;50.882;4.326;2023-04-29T06:30:29;12.50;99.90
17795;DHT22;9021;50.882;4.326;2023-04-29T06:32:54;12.50;99.90
17795;DHT22;9021;50.882;4.326;2023-04-29T06:35:20;11.90;99.90
17795;DHT22;9021;50.882;4.326;2023-04-29T06:37:46;12.40;99.90
17795;DHT22;9021;50.882;4.326;2023-04-29T06:40:12;12.70;99.90
17795;DHT22;9021;50.882;4.326;2023-04-29T06:42:37;12.40;99.90
17795;DHT22;9021;50.882;4.326;2023-04-29T06:45:04;12.10;99.90
17795;DHT22;9021;50.882;4.326;2023-04-29T06:47:29;12.00;99.90
17795;DHT22;9021;50.882;4.326;2023-04-29T06:49:55;13.60;99.90
17795;DHT22;9021;50.882;4.326;2023-04-29T06:52:21;12.50;99.90
17795;DHT22;9021;50.882;4.326;2023-04-29T06:54:46;12.50;99.90
17795;DHT22;9021;50.882;4.326;2023-04-29T06:57:12;12.50;99.90
17795;DHT22;9021;50.882;4.326;2023-04-29T06:59:38;12.40;99.90
17795;DHT22;9021;50.882;4.326;2023-04-29T07:02:03;12.70;99.90
17795;DHT22;9021;50.882;4.326;2023-04-29T07:04:29;12.40;99.90
17795;DHT22;9021;50.882;4.326;2023-04-29T07:06:55;12.40;99.90
17795;DHT22;9021;50.882;4.326;2023-04-29T07:09:20;12.50;99.90
17795;DHT22;9021;50.882;4.326;2023-04-29T07:11:48;12.00;99.90
17795;DHT22;9021;50.882;4.326;2023-04-29T07:14:14;12.80;99.90
17795;DHT22;9021;50.882;4.326;2023-04-29T07:16:39;12.30;99.90
17795;DHT22;9021;50.882;4.326;2023-04-29T07:19:05;12.40;99.90
17795;DHT22;9021;50.882;4.326;2023-04-29T07:21:31;11.80;99.90
17795;DHT22;9021;50.882;4.326;2023-04-29T07:23:57;12.60;99.90
17795;DHT22;9021;50.882;4.326;2023-04-29T07:26:25;12.60;99.90
17795;DHT22;9021;50.882;4.326;2023-04-29T07:28:50;12.30;99.90
17795;DHT22;9021;50.882;4.326;2023-04-29T07:31:16;11.10;99.90
17795;DHT22;9021;50.882;4.326;2023-04-29T07:33:43;12.30;99.90
17795;DHT22;9021;50.882;4.326;2023-04-29T07:36:10;13.30;99.90
17795;DHT22;9021;50.882;4.326;2023-04-29T07:38:35;12.60;99.90
17795;DHT22;9021;50.882;4.326;2023-04-29T07:41:01;12.50;99.90
17795;DHT22;9021;50.882;4.326;2023-04-29T07:43:29;12.40;99.90
17795;DHT22;9021;50.882;4.326;2023-04-29T07:45:54;13.00;99.90
17795;DHT22;9021;50.882;4.326;2023-04-29T07:48:20;13.00;99.90
17795;DHT22;9021;50.882;4.326;2023-04-29T07:50:46;13.00;99.90
17795;DHT22;9021;50.882;4.326;2023-04-29T07:53:11;13.10;99.90
17795;DHT22;9021;50.882;4.326;2023-04-29T07:55:37;13.00;99.90
17795;DHT22;9021;50.882;4.326;2023-04-29T08:00:29;13.00;99.90
17795;DHT22;9021;50.882;4.326;2023-04-29T08:02:56;13.50;99.90
17795;DHT22;9021;50.882;4.326;2023-04-29T08:05:22;13.00;99.90
17795;DHT22;9021;50.882;4.326;2023-04-29T08:07:48;13.20;99.90
17795;DHT22;9021;50.882;4.326;2023-04-29T08:10:15;13.10;99.90
17795;DHT22;9021;50.882;4.326;2023-04-29T08:12:44;13.30;99.90
17795;DHT22;9021;50.882;4.326;2023-04-29T08:15:09;13.20;99.90
17795;DHT22;9021;50.882;4.326;2023-04-29T08:17:35;13.90;99.90
17795;DHT22;9021;50.882;4.326;2023-04-29T08:20:01;14.00;99.90
17795;DHT22;9021;50.882;4.326;2023-04-29T08:22:27;13.50;99.90
17795;DHT22;9021;50.882;4.326;2023-04-29T08:24:52;13.60;99.90
17795;DHT22;9021;50.882;4.326;2023-04-29T08:27:18;12.20;99.90
17795;DHT22;9021;50.882;4.326;2023-04-29T08:29:45;13.70;99.90
17795;DHT22;9021;50.882;4.326;2023-04-29T08:32:11;13.70;99.90
17795;DHT22;9021;50.882;4.326;2023-04-29T08:34:37;13.80;99.90
17795;DHT22;9021;50.882;4.326;2023-04-29T08:37:03;13.90;99.90
17795;DHT22;9021;50.882;4.326;2023-04-29T08:39:29;14.10;99.90
17795;DHT22;9021;50.882;4.326;2023-04-29T08:41:58;14.20;99.90
17795;DHT22;9021;50.882;4.326;2023-04-29T08:44:25;14.10;99.90
17795;DHT22;9021;50.882;4.326;2023-04-29T08:46:54;14.80;99.90
17795;DHT22;9021;50.882;4.326;2023-04-29T08:49:21;14.50;99.90
17795;DHT22;9021;50.882;4.326;2023-04-29T08:51:48;14.60;99.90
17795;DHT22;9021;50.882;4.326;2023-04-29T08:54:16;14.60;99.90
17795;DHT22;9021;50.882;4.326;2023-04-29T08:56:44;14.60;99.90
17795;DHT22;9021;50.882;4.326;2023-04-29T08:59:13;14.60;99.90
17795;DHT22;9021;50.882;4.326;2023-04-29T09:01:39;14.60;99.90
17795;DHT22;9021;50.882;4.326;2023-04-29T09:07:06;14.90;99.90
17795;DHT22;9021;50.882;4.326;2023-04-29T09:09:32;15.00;99.90
17795;DHT22;9021;50.882;4.326;2023-04-29T09:11:58;14.80;99.90
17795;DHT22;9021;50.882;4.326;2023-04-29T09:14:24;15.30;99.90
17795;DHT22;9021;50.882;4.326;2023-04-29T09:16:50;14.70;99.90
17795;DHT22;9021;50.882;4.326;2023-04-29T09:19:29;14.40;99.90
17795;DHT22;9021;50.882;4.326;2023-04-29T09:21:56;14.60;99.90
17795;DHT22;9021;50.882;4.326;2023-04-29T09:24:26;14.70;99.90
17795;DHT22;9021;50.882;4.326;2023-04-29T09:26:55;14.60;99.90
17795;DHT22;9021;50.882;4.326;2023-04-29T09:29:21;14.60;99.90
17795;DHT22;9021;50.882;4.326;2023-04-29T09:31:47;14.60;99.90
17795;DHT22;9021;50.882;4.326;2023-04-29T09:34:14;14.40;99.90
17795;DHT22;9021;50.882;4.326;2023-04-29T09:36:49;14.60;99.90
17795;DHT22;9021;50.882;4.326;2023-04-29T09:39:20;14.70;99.90
17795;DHT22;9021;50.882;4.326;2023-04-29T09:44:19;15.00;99.90
17795;DHT22;9021;50.882;4.326;2023-04-29T09:47:06;15.00;99.90
17795;DHT22;9021;50.882;4.326;2023-04-29T09:49:33;15.00;99.90
17795;DHT22;9021;50.882;4.326;2023-04-29T09:52:14;15.00;99.90
17795;DHT22;9021;50.882;4.326;2023-04-29T09:54:42;15.00;99.90
17795;DHT22;9021;50.882;4.326;2023-04-29T09:57:10;14.90;99.90
17795;DHT22;9021;50.882;4.326;2023-04-29T09:59:38;14.80;99.90
17795;DHT22;9021;50.882;4.326;2023-04-29T10:02:17;15.20;99.90
17795;DHT22;9021;50.882;4.326;2023-04-29T10:04:47;15.40;99.90
17795;DHT22;9021;50.882;4.326;2023-04-29T10:07:17;15.60;99.90
17795;DHT22;9021;50.882;4.326;2023-04-29T10:09:46;15.70;99.90
17795;DHT22;9021;50.882;4.326;2023-04-29T10:12:16;16.00;99.90
17795;DHT22;9021;50.882;4.326;2023-04-29T10:15:10;16.20;99.90
17795;DHT22;9021;50.882;4.326;2023-04-29T10:17:51;17.60;99.90
17795;DHT22;9021;50.882;4.326;2023-04-29T10:20:23;17.30;99.90
17795;DHT22;9021;50.882;4.326;2023-04-29T10:22:53;17.60;99.90
17795;DHT22;9021;50.882;4.326;2023-04-29T10:25:21;17.60;99.90
17795;DHT22;9021;50.882;4.326;2023-04-29T10:27:48;17.90;99.90
17795;DHT22;9021;50.882;4.326;2023-04-29T10:30:15;17.50;99.90
17795;DHT22;9021;50.882;4.326;2023-04-29T10:32:47;18.80;99.90
17795;DHT22;9021;50.882;4.326;2023-04-29T10:35:14;17.70;99.90
17795;DHT22;9021;50.882;4.326;2023-04-29T10:37:41;17.70;99.90
17795;DHT22;9021;50.882;4.326;2023-04-29T10:40:14;17.90;99.90
17795;DHT22;9021;50.882;4.326;2023-04-29T10:42:46;17.20;99.90
17795;DHT22;9021;50.882;4.326;2023-04-29T10:45:26;17.80;99.90
17795;DHT22;9021;50.882;4.326;2023-04-29T10:50:34;17.40;99.60
17795;DHT22;9021;50.882;4.326;2023-04-29T10:53:04;17.30;99.90
17795;DHT22;9021;50.882;4.326;2023-04-29T10:55:30;16.70;99.90
17795;DHT22;9021;50.882;4.326;2023-04-29T10:57:56;17.00;99.90
17795;DHT22;9021;50.882;4.326;2023-04-29T11:00:33;16.90;99.90
17795;DHT22;9021;50.882;4.326;2023-04-29T11:03:05;16.90;99.90
17795;DHT22;9021;50.882;4.326;2023-04-29T11:05:35;16.70;99.90
17795;DHT22;9021;50.882;4.326;2023-04-29T11:08:18;16.70;99.90
17795;DHT22;9021;50.882;4.326;2023-04-29T11:10:53;16.50;99.90
17795;DHT22;9021;50.882;4.326;2023-04-29T11:13:29;16.50;99.90
17795;DHT22;9021;50.882;4.326;2023-04-29T11:16:13;16.70;99.90
17795;DHT22;9021;50.882;4.326;2023-04-29T11:19:06;15.80;99.90
17795;DHT22;9021;50.882;4.326;2023-04-29T11:21:34;16.60;99.90
17795;DHT22;9021;50.882;4.326;2023-04-29T11:23:59;15.60;99.90
17795;DHT22;9021;50.882;4.326;2023-04-29T11:26:25;16.20;99.90
17795;DHT22;9021;50.882;4.326;2023-04-29T11:28:51;16.40;99.90
17795;DHT22;9021;50.882;4.326;2023-04-29T11:31:18;15.40;99.90
17795;DHT22;9021;50.882;4.326;2023-04-29T11:33:45;15.80;99.90
17795;DHT22;9021;50.882;4.326;2023-04-29T11:36:11;15.80;99.90
17795;DHT22;9021;50.882;4.326;2023-04-29T11:38:39;15.80;99.90
17795;DHT22;9021;50.882;4.326;2023-04-29T11:41:05;15.80;99.90
17795;DHT22;9021;50.882;4.326;2023-04-29T11:43:31;16.20;99.90
17795;DHT22;9021;50.882;4.326;2023-04-29T11:45:57;15.80;99.90
17795;DHT22;9021;50.882;4.326;2023-04-29T11:48:26;16.10;99.90
17795;DHT22;9021;50.882;4.326;2023-04-29T11:50:57;16.30;99.90
17795;DHT22;9021;50.882;4.326;2023-04-29T11:53:25;16.30;99.90
17795;DHT22;9021;50.882;4.326;2023-04-29T11:55:52;16.30;99.90
17795;DHT22;9021;50.882;4.326;2023-04-29T11:58:23;16.60;99.90
17795;DHT22;9021;50.882;4.326;2023-04-29T12:00:49;16.70;99.90
17795;DHT22;9021;50.882;4.326;2023-04-29T12:03:17;16.90;99.90
17795;DHT22;9021;50.882;4.326;2023-04-29T12:05:50;17.20;99.90
17795;DHT22;9021;50.882;4.326;2023-04-29T12:08:24;16.70;99.90
17795;DHT22;9021;50.882;4.326;2023-04-29T12:10:53;16.70;99.90
17795;DHT22;9021;50.882;4.326;2023-04-29T12:13:20;16.70;99.90
17795;DHT22;9021;50.882;4.326;2023-04-29T12:15:48;16.70;99.90
17795;DHT22;9021;50.882;4.326;2023-04-29T12:18:16;17.10;99.90
17795;DHT22;9021;50.882;4.326;2023-04-29T12:20:43;16.80;99.90
17795;DHT22;9021;50.882;4.326;2023-04-29T12:23:16;17.00;99.90
17795;DHT22;9021;50.882;4.326;2023-04-29T12:25:51;16.80;99.90
17795;DHT22;9021;50.882;4.326;2023-04-29T12:28:17;16.90;99.90
17795;DHT22;9021;50.882;4.326;2023-04-29T12:30:48;17.20;99.70
17795;DHT22;9021;50.882;4.326;2023-04-29T12:33:22;17.30;99.30
17795;DHT22;9021;50.882;4.326;2023-04-29T12:35:52;17.60;98.90
17795;DHT22;9021;50.882;4.326;2023-04-29T12:38:22;18.20;98.50
17795;DHT22;9021;50.882;4.326;2023-04-29T12:40:48;18.50;97.90
17795;DHT22;9021;50.882;4.326;2023-04-29T12:43:15;19.20;99.50
17795;DHT22;9021;50.882;4.326;2023-04-29T12:45:41;18.90;97.60
17795;DHT22;9021;50.882;4.326;2023-04-29T12:48:07;18.90;97.30
17795;DHT22;9021;50.882;4.326;2023-04-29T12:50:34;18.70;96.90
17795;DHT22;9021;50.882;4.326;2023-04-29T12:53:02;18.70;97.00
17795;DHT22;9021;50.882;4.326;2023-04-29T12:55:30;18.60;97.40
17795;DHT22;9021;50.882;4.326;2023-04-29T12:57:56;18.10;98.70
17795;DHT22;9021;50.882;4.326;2023-04-29T13:00:21;18.20;97.70
17795;DHT22;9021;50.882;4.326;2023-04-29T13:02:47;18.10;98.40
17795;DHT22;9021;50.882;4.326;2023-04-29T13:05:13;17.80;98.10
17795;DHT22;9021;50.882;4.326;2023-04-29T13:07:39;17.70;99.50
17795;DHT22;9021;50.882;4.326;2023-04-29T13:10:05;18.20;99.90
17795;DHT22;9021;50.882;4.326;2023-04-29T13:12:32;17.60;99.30
17795;DHT22;9021;50.882;4.326;2023-04-29T13:14:57;17.70;98.60
17795;DHT22;9021;50.882;4.326;2023-04-29T13:17:23;17.80;98.80
17795;DHT22;9021;50.882;4.326;2023-04-29T13:19:49;18.00;98.60
17795;DHT22;9021;50.882;4.326;2023-04-29T13:22:15;18.10;97.50
17795;DHT22;9021;50.882;4.326;2023-04-29T13:24:40;18.20;97.50
17795;DHT22;9021;50.882;4.326;2023-04-29T13:27:06;18.10;99.30
17795;DHT22;9021;50.882;4.326;2023-04-29T13:29:32;18.20;98.20
17795;DHT22;9021;50.882;4.326;2023-04-29T13:31:57;18.20;98.50
17795;DHT22;9021;50.882;4.326;2023-04-29T13:34:23;18.10;98.40
17795;DHT22;9021;50.882;4.326;2023-04-29T13:36:49;18.00;98.90
17795;DHT22;9021;50.882;4.326;2023-04-29T13:39:14;17.90;99.20
17795;DHT22;9021;50.882;4.326;2023-04-29T13:41:41;18.70;99.90
17795;DHT22;9021;50.882;4.326;2023-04-29T13:44:07;17.90;99.90
17795;DHT22;9021;50.882;4.326;2023-04-29T13:46:33;18.00;98.50
17795;DHT22;9021;50.882;4.326;2023-04-29T13:48:58;17.90;98.40
17795;DHT22;9021;50.882;4.326;2023-04-29T13:51:24;17.90;98.50
17795;DHT22;9021;50.882;4.326;2023-04-29T13:53:50;17.90;98.40
17795;DHT22;9021;50.882;4.326;2023-04-29T13:56:16;18.00;98.20
17795;DHT22;9021;50.882;4.326;2023-04-29T13:58:41;18.10;98.00
17795;DHT22;9021;50.882;4.326;2023-04-29T14:01:07;18.20;97.70
17795;DHT22;9021;50.882;4.326;2023-04-29T14:03:33;18.40;98.80
17795;DHT22;9021;50.882;4.326;2023-04-29T14:05:59;18.50;98.30
17795;DHT22;9021;50.882;4.326;2023-04-29T14:08:25;18.60;97.70
17795;DHT22;9021;50.882;4.326;2023-04-29T14:10:51;18.60;98.10
17795;DHT22;9021;50.882;4.326;2023-04-29T14:13:17;18.50;97.20
17795;DHT22;9021;50.882;4.326;2023-04-29T14:15:42;18.70;97.00
17795;DHT22;9021;50.882;4.326;2023-04-29T14:18:08;18.80;99.60
17795;DHT22;9021;50.882;4.326;2023-04-29T14:20:36;18.80;97.60
17795;DHT22;9021;50.882;4.326;2023-04-29T14:23:01;19.40;98.10
17795;DHT22;9021;50.882;4.326;2023-04-29T14:25:27;18.80;96.80
17795;DHT22;9021;50.882;4.326;2023-04-29T14:27:53;19.00;97.10
17795;DHT22;9021;50.882;4.326;2023-04-29T14:30:19;18.80;96.30
17795;DHT22;9021;50.882;4.326;2023-04-29T14:32:44;18.90;96.60
17795;DHT22;9021;50.882;4.326;2023-04-29T14:35:10;19.00;96.60
17795;DHT22;9021;50.882;4.326;2023-04-29T14:37:36;19.10;96.90
17795;DHT22;9021;50.882;4.326;2023-04-29T14:40:02;19.20;97.10
17795;DHT22;9021;50.882;4.326;2023-04-29T14:42:28;18.90;97.60
17795;DHT22;9021;50.882;4.326;2023-04-29T14:44:54;18.90;96.50
17795;DHT22;9021;50.882;4.326;2023-04-29T14:47:20;19.30;96.90
17795;DHT22;9021;50.882;4.326;2023-04-29T14:49:46;19.60;97.30
17795;DHT22;9021;50.882;4.326;2023-04-29T14:52:11;19.30;95.70
17795;DHT22;9021;50.882;4.326;2023-04-29T14:54:37;19.50;95.20
17795;DHT22;9021;50.882;4.326;2023-04-29T14:57:03;19.00;95.10
17795;DHT22;9021;50.882;4.326;2023-04-29T14:59:29;19.10;95.20
17795;DHT22;9021;50.882;4.326;2023-04-29T15:01:55;19.20;94.90
17795;DHT22;9021;50.882;4.326;2023-04-29T15:04:21;19.20;95.70
17795;DHT22;9021;50.882;4.326;2023-04-29T15:06:47;19.20;95.20
17795;DHT22;9021;50.882;4.326;2023-04-29T15:09:13;19.10;95.30
17795;DHT22;9021;50.882;4.326;2023-04-29T15:11:39;19.00;96.50
17795;DHT22;9021;50.882;4.326;2023-04-29T15:14:05;19.00;96.60
17795;DHT22;9021;50.882;4.326;2023-04-29T15:16:31;19.00;96.50
17795;DHT22;9021;50.882;4.326;2023-04-29T15:18:56;18.90;98.90
17795;DHT22;9021;50.882;4.326;2023-04-29T15:21:22;18.80;96.60
17795;DHT22;9021;50.882;4.326;2023-04-29T15:23:48;18.80;96.20
17795;DHT22;9021;50.882;4.326;2023-04-29T15:26:14;18.80;95.70
17795;DHT22;9021;50.882;4.326;2023-04-29T15:28:39;18.90;95.90
17795;DHT22;9021;50.882;4.326;2023-04-29T15:31:05;18.80;96.80
17795;DHT22;9021;50.882;4.326;2023-04-29T15:33:31;18.90;96.80
17795;DHT22;9021;50.882;4.326;2023-04-29T15:35:57;18.90;96.40
17795;DHT22;9021;50.882;4.326;2023-04-29T15:38:23;18.90;95.90
17795;DHT22;9021;50.882;4.326;2023-04-29T15:40:49;19.00;95.80
17795;DHT22;9021;50.882;4.326;2023-04-29T15:45:40;19.80;96.70
17795;DHT22;9021;50.882;4.326;2023-04-29T15:48:06;19.10;96.50
17795;DHT22;9021;50.882;4.326;2023-04-29T15:50:32;18.90;96.50
17795;DHT22;9021;50.882;4.326;2023-04-29T15:52:58;18.90;96.50
17795;DHT22;9021;50.882;4.326;2023-04-29T15:55:24;18.70;96.20
17795;DHT22;9021;50.882;4.326;2023-04-29T15:57:50;18.70;96.60
17795;DHT22;9021;50.882;4.326;2023-04-29T16:00:16;18.70;96.70
17795;DHT22;9021;50.882;4.326;2023-04-29T16:02:42;18.60;97.90
17795;DHT22;9021;50.882;4.326;2023-04-29T16:05:08;18.60;96.80
17795;DHT22;9021;50.882;4.326;2023-04-29T16:07:34;18.70;97.10
17795;DHT22;9021;50.882;4.326;2023-04-29T16:09:59;18.70;96.70
17795;DHT22;9021;50.882;4.326;2023-04-29T16:12:25;18.70;96.60
17795;DHT22;9021;50.882;4.326;2023-04-29T16:14:51;19.10;98.70
17795;DHT22;9021;50.882;4.326;2023-04-29T16:17:17;18.70;96.60
17795;DHT22;9021;50.882;4.326;2023-04-29T16:19:43;18.80;96.50
17795;DHT22;9021;50.882;4.326;2023-04-29T16:22:09;18.90;96.40
17795;DHT22;9021;50.882;4.326;2023-04-29T16:24:35;18.70;98.10
17795;DHT22;9021;50.882;4.326;2023-04-29T16:27:00;19.10;96.70
17795;DHT22;9021;50.882;4.326;2023-04-29T16:29:27;19.30;95.50